Time;durP1;ratioP1;P1;durP2;ratioP2;P2;SDS_P1;SDS_P2;PMS_P1;PMS_P2;Temp;Humidity;BMP_temperature;BMP_pressure;BME280_temperature;BME280_humidity;BME280_pressure;Samples;Min_cycle;Max_cycle;Signal;HPM_P1;HPM_P2
2022/12/16 00:00:44;;;;;;;65.28;37.33;;;-0.30;99.90;;;;;;5022387;28;20044;-58
2022/12/16 00:03:10;;;;;;;64.07;37.60;;;-0.30;99.90;;;;;;5024220;28;20048;-59
2022/12/16 00:05:36;;;;;;;69.25;37.88;;;-0.30;99.90;;;;;;5022220;28;20036;-58
2022/12/16 00:08:02;;;;;;;60.95;35.42;;;-0.30;99.90;;;;;;5024385;28;20050;-59
2022/12/16 00:10:51;;;;;;;68.88;37.63;;;-0.30;99.90;;;;;;5021697;28;20081;-58
2022/12/16 00:13:13;;;;;;;63.45;37.42;;;-0.30;99.90;;;;;;5023051;28;20117;-59
2022/12/16 00:15:39;;;;;;;65.90;36.40;;;-0.40;99.90;;;;;;5023608;28;20167;-57
2022/12/16 00:18:04;;;;;;;67.97;36.92;;;-0.40;99.90;;;;;;5024175;28;20132;-58
2022/12/16 00:20:30;;;;;;;66.28;37.58;;;-0.40;99.90;;;;;;5023768;28;20528;-58
2022/12/16 00:22:55;;;;;;;70.53;37.95;;;-0.50;99.90;;;;;;5023723;28;20045;-57
2022/12/16 00:25:21;;;;;;;67.88;37.88;;;-0.50;99.90;;;;;;5023927;28;20067;-58
2022/12/16 00:27:46;;;;;;;66.95;36.63;;;-0.50;99.90;;;;;;5022749;28;20408;-58
2022/12/16 00:30:12;;;;;;;67.18;37.97;;;-0.50;99.90;;;;;;5023641;28;20130;-59
2022/12/16 00:32:38;;;;;;;70.95;38.40;;;-0.50;99.90;;;;;;5023290;28;20045;-58
2022/12/16 00:35:04;;;;;;;69.35;37.25;;;-0.50;99.90;;;;;;5023562;28;20045;-57
2022/12/16 00:37:29;;;;;;;72.70;39.40;;;-0.60;99.90;;;;;;5024082;28;20042;-58
2022/12/16 00:39:55;;;;;;;72.07;38.30;;;-0.60;99.90;;;;;;5023290;28;20133;-57
2022/12/16 00:42:21;;;;;;;75.25;38.70;;;-0.60;99.90;;;;;;5023483;28;20045;-57
2022/12/16 00:44:46;;;;;;;71.78;38.67;;;-0.60;99.90;;;;;;5022383;28;20045;-59
2022/12/16 00:47:12;;;;;;;72.63;39.10;;;-0.60;99.90;;;;;;5022863;28;20084;-60
2022/12/16 00:49:37;;;;;;;75.40;41.10;;;-0.60;99.90;;;;;;5023200;28;20091;-55
2022/12/16 00:52:03;;;;;;;71.25;39.20;;;-0.60;99.90;;;;;;5023246;28;20060;-59
2022/12/16 00:54:28;;;;;;;72.00;39.75;;;-0.60;99.90;;;;;;5023198;28;20042;-58
2022/12/16 00:56:55;;;;;;;71.57;39.03;;;-0.60;99.90;;;;;;5023473;28;20045;-58
2022/12/16 00:59:21;;;;;;;76.72;39.65;;;-0.50;99.90;;;;;;5022373;28;20057;-57
2022/12/16 01:01:47;;;;;;;75.60;39.95;;;-0.50;99.90;;;;;;5021815;28;20052;-58
2022/12/16 01:04:12;;;;;;;72.13;39.20;;;-0.50;99.90;;;;;;5023201;28;20103;-58
2022/12/16 01:06:38;;;;;;;76.18;38.90;;;-0.50;99.90;;;;;;5023498;28;20148;-57
2022/12/16 01:09:03;;;;;;;69.82;38.42;;;-0.40;99.90;;;;;;5022330;28;20046;-58
2022/12/16 01:11:29;;;;;;;71.22;38.60;;;-0.40;99.90;;;;;;5022994;28;20029;-57
2022/12/16 01:13:55;;;;;;;76.05;36.67;;;-0.40;99.90;;;;;;5022525;28;20092;-57
2022/12/16 01:16:20;;;;;;;70.80;36.47;;;-0.40;99.90;;;;;;5022728;28;20535;-58
2022/12/16 01:18:46;;;;;;;63.67;35.85;;;-0.40;99.90;;;;;;5023698;28;20511;-58
2022/12/16 01:21:13;;;;;;;64.70;36.15;;;-0.40;99.90;;;;;;5022823;28;20045;-58
2022/12/16 01:23:39;;;;;;;62.90;34.47;;;-0.30;99.90;;;;;;5026763;28;20077;-59
2022/12/16 01:26:05;;;;;;;64.50;35.08;;;-0.30;99.90;;;;;;5027177;28;20134;-57
2022/12/16 01:28:31;;;;;;;70.07;36.65;;;-0.30;99.90;;;;;;5026209;28;20037;-58
2022/12/16 01:31:00;;;;;;;62.08;34.38;;;-0.30;99.90;;;;;;5026682;28;20064;-58
2022/12/16 01:33:28;;;;;;;60.30;35.42;;;-0.30;99.90;;;;;;5026822;28;20115;-57
2022/12/16 01:35:58;;;;;;;59.33;33.80;;;-0.20;99.90;;;;;;5012988;28;20053;-57
2022/12/16 01:38:24;;;;;;;64.35;33.70;;;-0.30;99.90;;;;;;5026456;28;20542;-59
2022/12/16 01:40:50;;;;;;;61.50;32.65;;;-0.20;99.90;;;;;;5027619;28;20049;-58
2022/12/16 01:43:17;;;;;;;62.58;33.08;;;-0.20;99.90;;;;;;5027006;28;20572;-57
2022/12/16 01:45:43;;;;;;;53.15;31.73;;;-0.20;99.90;;;;;;5026717;28;20107;-57
2022/12/16 01:48:21;;;;;;;69.07;32.90;;;-0.20;99.90;;;;;;5026667;28;20072;-58
2022/12/16 01:50:48;;;;;;;56.13;31.20;;;-0.10;99.90;;;;;;5025086;28;20033;-57
2022/12/16 01:53:14;;;;;;;56.80;29.42;;;-0.10;99.90;;;;;;5019665;28;20046;-58
2022/12/16 01:55:44;;;;;;;47.42;27.35;;;-0.10;99.90;;;;;;5026192;28;20037;-57
2022/12/16 01:58:20;;;;;;;54.17;28.70;;;-0.10;99.90;;;;;;5027115;28;20145;-57
2022/12/16 02:00:46;;;;;;;51.25;25.88;;;0.00;99.90;;;;;;5024349;28;20049;-56
2022/12/16 02:03:11;;;;;;;47.75;25.08;;;0.00;99.90;;;;;;5026262;28;20418;-58
2022/12/16 02:05:42;;;;;;;53.10;24.70;;;0.00;99.90;;;;;;5024526;28;20041;-59
2022/12/16 02:08:16;;;;;;;39.60;22.02;;;0.00;99.90;;;;;;5026853;28;20041;-56
2022/12/16 02:10:41;;;;;;;46.25;22.63;;;0.10;99.90;;;;;;5026269;28;20044;-58
2022/12/16 02:13:30;;;;;;;36.22;18.23;;;0.10;99.90;;;;;;5026264;28;20045;-58
2022/12/16 02:16:34;;;;;;;28.95;15.35;;;0.10;99.90;;;;;;5023370;28;20481;-58
2022/12/16 02:19:20;;;;;;;20.70;11.88;;;0.20;99.90;;;;;;5026527;28;20045;-58
2022/12/16 02:22:05;;;;;;;21.73;9.82;;;0.20;99.90;;;;;;5003805;28;20056;-59
2022/12/16 02:25:18;;;;;;;19.52;9.65;;;0.30;99.90;;;;;;5016509;28;20041;-58
2022/12/16 02:28:22;;;;;;;16.00;9.30;;;0.40;99.90;;;;;;5026191;28;20569;-58
2022/12/16 02:31:14;;;;;;;20.58;8.63;;;0.40;99.90;;;;;;5014767;28;20033;-57
2022/12/16 02:34:09;;;;;;;21.45;9.30;;;0.40;99.90;;;;;;5023311;28;20545;-60
2022/12/16 02:36:45;;;;;;;;;;;0.40;99.90;;;;;;5023573;28;20049;-59
2022/12/16 02:39:20;;;;;;;21.10;8.15;;;0.50;99.90;;;;;;5025427;28;20003;-58
2022/12/16 02:42:11;;;;;;;17.00;8.45;;;0.50;99.90;;;;;;5025899;28;20049;-59
2022/12/16 02:45:01;;;;;;;17.73;8.40;;;0.50;99.90;;;;;;5025825;28;20049;-58
2022/12/16 02:47:28;;;;;;;14.50;7.40;;;0.50;99.90;;;;;;5025538;28;20045;-60
2022/12/16 02:49:54;;;;;;;13.45;7.28;;;0.60;99.90;;;;;;5024454;28;20508;-59
2022/12/16 02:52:26;;;;;;;16.63;7.93;;;0.60;99.90;;;;;;5025409;28;20049;-58
2022/12/16 02:54:58;;;;;;;12.55;6.97;;;0.50;99.90;;;;;;5025557;28;20041;-59
2022/12/16 02:57:51;;;;;;;13.23;7.07;;;0.60;99.90;;;;;;5024768;28;20049;-58
2022/12/16 03:00:20;;;;;;;17.05;6.43;;;0.60;99.90;;;;;;5024941;28;20046;-58
2022/12/16 03:03:06;;;;;;;11.48;6.32;;;0.60;99.90;;;;;;5024294;28;20475;-60
2022/12/16 03:05:36;;;;;;;19.60;5.75;;;0.70;99.90;;;;;;5019468;28;20052;-59
2022/12/16 03:08:06;;;;;;;12.68;6.28;;;0.70;99.90;;;;;;5025504;28;20045;-60
2022/12/16 03:10:40;;;;;;;11.43;5.95;;;0.80;99.90;;;;;;5024660;28;20037;-60
2022/12/16 03:13:09;;;;;;;11.55;5.80;;;0.80;99.90;;;;;;5025196;28;20524;-59
2022/12/16 03:15:35;;;;;;;10.18;5.78;;;0.80;99.90;;;;;;5024322;28;20129;-59
2022/12/16 03:18:04;;;;;;;10.40;5.93;;;0.90;99.90;;;;;;5025654;28;20049;-58
2022/12/16 03:20:40;;;;;;;15.32;6.43;;;0.90;99.90;;;;;;5022596;28;20041;-59
2022/12/16 03:23:10;;;;;;;13.95;6.68;;;0.90;99.90;;;;;;5024476;28;20091;-58
2022/12/16 03:25:40;;;;;;;14.27;6.97;;;1.00;99.90;;;;;;5024656;28;20126;-58
2022/12/16 03:28:31;;;;;;;14.82;7.32;;;1.00;99.90;;;;;;5024744;28;20041;-59
2022/12/16 03:31:25;;;;;;;14.50;8.40;;;1.00;99.90;;;;;;5023454;28;20039;-59
2022/12/16 03:33:58;;;;;;;20.88;9.50;;;1.10;99.90;;;;;;5019752;28;20049;-58
2022/12/16 03:36:26;;;;;;;21.73;11.93;;;1.10;99.90;;;;;;5022951;28;20558;-56
2022/12/16 03:38:54;;;;;;;19.10;11.63;;;1.10;99.90;;;;;;5024577;28;20400;-56
2022/12/16 03:41:22;;;;;;;25.67;12.68;;;1.10;99.90;;;;;;5024533;28;20045;-57
2022/12/16 03:43:48;;;;;;;21.13;14.05;;;1.10;99.90;;;;;;5024930;28;20081;-59
2022/12/16 03:46:14;;;;;;;24.50;13.40;;;1.10;99.90;;;;;;5021498;28;20032;-58
2022/12/16 03:48:50;;;;;;;24.48;15.18;;;1.10;99.90;;;;;;5024764;28;20037;-59
2022/12/16 03:51:17;;;;;;;32.22;17.33;;;1.10;99.90;;;;;;5022226;28;20083;-59
2022/12/16 03:53:43;;;;;;;38.10;19.33;;;1.10;99.90;;;;;;5024285;28;20448;-59
2022/12/16 03:56:10;;;;;;;30.13;20.13;;;1.10;99.90;;;;;;5040324;28;20448;-58
2022/12/16 03:58:38;;;;;;;39.08;21.08;;;1.20;99.90;;;;;;5024855;28;20757;-58
2022/12/16 04:01:05;;;;;;;34.85;22.38;;;1.20;99.90;;;;;;5023727;28;20037;-59
2022/12/16 04:03:30;;;;;;;39.85;24.73;;;1.10;99.90;;;;;;5024951;28;20046;-59
2022/12/16 04:05:56;;;;;;;41.58;25.83;;;1.20;99.90;;;;;;5023040;28;20033;-58
2022/12/16 04:08:21;;;;;;;43.83;28.70;;;1.20;99.90;;;;;;5024415;28;20049;-59
2022/12/16 04:24:33;;;;;;;66.40;35.35;;;1.30;99.90;;;;;;5013823;28;20038;-57
2022/12/16 04:34:24;;;;;;;;;;;1.20;99.90;;;;;;5023898;28;20721;-59
